Maran Pythia — SVAQ5 — position and weather

sailwx.info

Track history (hours):
 
Tides and Currents Weather Stations Pressure Air Temp Water Temp Dewpoint Dewpoint Depression Visibility Wind Speed Wind Dir Waves Ship Positions

Maran Pythia

Last reported at 2017-Jun-20 13:07 UTC. Time now 2017-Jun-24 05:20 UTC.
Position N 29°59' W 093°55'.

Length 275 m; draft 11 m.

Type: Ship (hazmat cat A). MMSI: 240893000.

Date/timePositionNaut miles runAvg speedWind from/ knotsBaromVisibWave heightAir tempDewpointWater temp
2017-Jun-20 13:07N 29°59' W 093°55'2 5.4
2017-Jun-20 12:39N 30°01' W 093°57'2 2.1
2017-Jun-20 11:52N 30°01' W 093°59'0 0.0
2017-Jun-20 11:23N 30°01' W 093°59'0 0.0
2017-Jun-20 08:38N 30°01' W 093°59'0 0.0
2017-Jun-20 05:23N 30°01' W 093°59'0 0.0
2017-Jun-20 04:59N 30°01' W 093°59'0 0.0
2017-Jun-20 04:29N 30°01' W 093°59'0 0.0
2017-Jun-20 03:53N 30°01' W 093°59'  
2017-Jun-17 22:13N 29°56' W 093°52'1 3.7
2017-Jun-17 21:50N 29°55' W 093°53'38 1.0
2017-Jun-16 06:55N 29°18' W 093°42'0 0.0
2017-Jun-16 05:31N 29°18' W 093°42'0 0.0
2017-Jun-16 05:07N 29°18' W 093°42'0 0.1
2017-Jun-16 04:43N 29°18' W 093°42'0 0.0
2017-Jun-16 03:46N 29°18' W 093°42'0 0.0
2017-Jun-16 02:22N 29°18' W 093°42'  
Track history (hours):
 
Tides and Currents Weather Stations Pressure Air Temp Water Temp Dewpoint Dewpoint Depression Visibility Wind Speed Wind Dir Waves Ship Positions

Maran Pythia

Last reported at 2017-Jun-20 13:07 UTC. Time now 2017-Jun-24 05:20 UTC.
Position N 29°59' W 093°55'.

Length 275 m; draft 11 m.

Type: Ship (hazmat cat A). MMSI: 240893000.

Date/timePositionNaut miles runAvg speedWind from/ knotsBaromVisibWave heightAir tempDewpointWater temp
2017-Jun-20 13:07N 29°59' W 093°55'2 5.4
2017-Jun-20 12:39N 30°01' W 093°57'2 2.1
2017-Jun-20 11:52N 30°01' W 093°59'0 0.0
2017-Jun-20 11:23N 30°01' W 093°59'0 0.0
2017-Jun-20 08:38N 30°01' W 093°59'0 0.0
2017-Jun-20 05:23N 30°01' W 093°59'0 0.0
2017-Jun-20 04:59N 30°01' W 093°59'0 0.0
2017-Jun-20 04:29N 30°01' W 093°59'0 0.0
2017-Jun-20 03:53N 30°01' W 093°59'  
2017-Jun-17 22:13N 29°56' W 093°52'1 3.7
2017-Jun-17 21:50N 29°55' W 093°53'38 1.0
2017-Jun-16 06:55N 29°18' W 093°42'0 0.0
2017-Jun-16 05:31N 29°18' W 093°42'0 0.0
2017-Jun-16 05:07N 29°18' W 093°42'0 0.1
2017-Jun-16 04:43N 29°18' W 093°42'0 0.0
2017-Jun-16 03:46N 29°18' W 093°42'0 0.0
2017-Jun-16 02:22N 29°18' W 093°42'  

Dump ship's entire track history